EW3521 Weather Reports


Display with metric or nautical units.
time (UTC)temp
F
wind
direction
speed
MPH
gust
MPH
rain 1hr
in
rain 24hr
in
rain mn
in
humidity
%
barometer
mb
20260510213031 49 91 1.0 3.0 0.00 0.00 0.00 52 1026.8
20260510211530 49 58 1.0 4.0 0.00 0.00 0.00 52 1026.7
20260510210026 49 48 1.0 4.0 0.00 0.00 0.00 56 1026.7
20260510204525 46 53 1.0 3.0 0.00 0.00 0.00 62 1026.6
20260510203025 47 79 1.0 3.0 0.00 0.00 0.00 59 1026.5
20260510201522 47 79 1.0 4.0 0.00 0.00 0.00 60 1026.6
20260510200021 47 49 1.0 3.0 0.00 0.00 0.00 61 1026.4
20260510194522 47 168 0.0 3.0 0.00 0.00 0.00 57 1026.3
20260510193018 45 116 0.0 4.0 0.00 0.00 0.00 62 1026.4
20260510191517 44 105 0.0 3.0 0.00 0.00 0.00 65 1026.3
20260510190015 45 122 0.0 4.0 0.00 0.00 0.00 64 1026.3
20260510184513 44 82 0.0 3.0 0.00 0.00 0.00 66 1026.0
20260510183010 44 81 0.0 3.0 0.00 0.00 0.00 66 1025.6
20260510181511 44 78 0.0 3.0 0.00 0.00 0.00 63 1025.4
20260510180012 44 120 0.0 3.0 0.00 0.00 0.00 66 1025.4
20260510174507 43 77 0.0 2.0 0.00 0.00 0.00 71 1025.4
20260510173006 44 180 1.0 3.0 0.00 0.00 0.00 67 1025.4
20260510171504 45 103 0.0 3.0 0.00 0.00 0.00 69 1025.2
20260510170003 46 56 1.0 3.0 0.00 0.00 0.00 64 1025.0
20260510164501 44 164 0.0 3.0 0.00 0.00 0.00 68 1025.0
20260510163109 45 118 1.0 3.0 0.00 0.00 0.00 69 1024.9
20260510161558 46 91 1.0 3.0 0.00 0.00 0.00 65 1024.7
20260510160055 46 105 1.0 5.0 0.00 0.00 0.00 64 1024.4
20260510154558 47 90 1.0 3.0 0.00 0.00 0.00 62 1024.3
20260510153052 46 97 1.0 4.0 0.00 0.00 0.00 64 1024.1
20260510151551 47 89 1.0 3.0 0.00 0.00 0.00 61 1023.8
20260510150052 46 86 1.0 3.0 0.00 0.00 0.00 64 1023.6
20260510144558 45 70 0.0 4.0 0.00 0.00 0.00 67 1023.5
20260510143039 44 105 1.0 4.0 0.00 0.00 0.00 68 1023.4
20260510141536 43 91 1.0 3.0 0.00 0.00 0.00 69 1023.2
20260510140031 42 68 0.0 3.0 0.00 0.00 0.00 78 1023.2
20260510134531 42 101 0.0 3.0 0.00 0.00 0.00 78 1023.1
20260510133028 41 86 0.0 2.0 0.00 0.00 0.00 80 1023.1
20260510131526 40 32 1.0 2.0 0.00 0.00 0.00 80 1023.0
20260510130024 40 64 0.0 3.0 0.00 0.00 0.00 81 1022.9
20260510124529 40 144 0.0 2.0 0.00 0.00 0.00 77 1022.8
20260510123023 39 111 0.0 2.0 0.00 0.00 0.00 84 1022.7
20260510121526 38 75 0.0 2.0 0.00 0.00 0.00 86 1022.6
20260510120027 36 79 0.0 1.0 0.00 0.00 0.00 90 1022.4
20260510114516 36 91 0.0 1.0 0.00 0.00 0.00 91 1022.2
20260510113014 34 126 0.0 1.0 0.00 0.00 0.00 96 1021.9
20260510111513 31 110 0.0 0.0 0.00 0.00 0.00 95 1021.8
20260510110014 30 110 0.0 1.0 0.00 0.00 0.00 94 1021.5
20260510104507 29 98 0.0 0.0 0.00 0.00 0.00 93 1021.2
20260510103003 30 98 0.0 0.0 0.00 0.00 0.00 93 1021.0
20260510101600 30 92 0.0 0.0 0.00 0.00 0.00 92 1020.7
20260510094553 32 92 0.0 1.0 0.00 0.00 0.00 90 1020.4
20260510093050 33 92 0.0 0.0 0.00 0.00 0.00 89 1020.3
20260510091546 34 92 0.0 1.0 0.00 0.00 0.00 88 1020.0
20260510090043 35 92 0.0 1.0 0.00 0.00 0.00 88 1019.8
20260510084541 35 92 0.0 1.0 0.00 0.00 0.00 88 1019.7
20260510083039 35 91 0.0 1.0 0.00 0.00 0.00 88 1019.6
20260510081541 35 91 0.0 1.0 0.00 0.00 0.00 87 1019.5
20260510080034 36 91 0.0 1.0 0.00 0.00 0.00 84 1019.3
20260510074534 36 90 0.0 1.0 0.00 0.00 0.00 79 1019.0
20260510073028 37 94 0.0 1.0 0.00 0.00 0.00 76 1018.8
20260510071526 36 146 0.0 1.0 0.00 0.00 0.00 76 1018.5
20260510070023 36 150 0.0 0.0 0.00 0.00 0.00 76 1018.3
20260510064521 36 150 0.0 0.0 0.00 0.00 0.00 75 1018.3
20260510063021 36 122 0.0 1.0 0.00 0.00 0.00 76 1018.3
20260510061527 36 156 0.0 0.0 0.00 0.00 0.00 74 1018.1
20260510060031 37 156 0.0 0.0 0.00 0.00 0.00 73 1018.1
20260510054511 38 156 0.0 0.0 0.00 0.00 0.00 70 1017.8
20260510053007 39 132 0.0 1.0 0.00 0.00 0.00 67 1017.8
20260510051505 40 136 0.0 1.0 0.00 0.00 0.00 66 1017.6
20260510050002 40 138 0.0 2.0 0.00 0.00 0.00 64 1017.5
20260510044600 40 141 0.0 3.0 0.00 0.00 0.00 62 1017.5
20260510043144 41 124 0.0 3.0 0.00 0.00 0.00 62 1017.4
20260510041556 40 135 0.0 3.0 0.00 0.00 0.00 63 1017.1
20260510040051 41 152 0.0 4.0 0.00 0.00 0.00 63 1016.7
20260510034554 41 123 1.0 3.0 0.00 0.00 0.00 63 1016.5
20260510033050 41 139 1.0 4.0 0.00 0.00 0.00 63 1016.6
20260510031619 42 117 0.0 3.0 0.00 0.00 0.00 63 1016.7
20260510030044 42 126 1.0 5.0 0.00 0.00 0.00 64 1016.6
20260510024546 42 139 0.0 3.0 0.00 0.00 0.00 64 1016.5
20260510023051 42 120 0.0 3.0 0.00 0.00 0.00 64 1016.5
20260510021544 42 155 0.0 2.0 0.00 0.00 0.00 66 1016.3
20260510020038 42 126 0.0 1.0 0.00 0.00 0.00 66 1016.2
20260510014535 42 148 0.0 2.0 0.00 0.00 0.00 64 1015.7
20260510013036 43 139 0.0 2.0 0.00 0.00 0.00 64 1015.5
20260510011530 43 156 1.0 4.0 0.00 0.00 0.00 62 1015.2
20260510010029 44 125 0.0 4.0 0.00 0.00 0.00 62 1015.0
20260510004522 45 137 0.0 5.0 0.00 0.00 0.00 61 1014.7
20260510003020 45 193 1.0 5.0 0.00 0.00 0.00 59 1014.3
20260510001518 46 72 2.0 5.0 0.00 0.00 0.00 58 1014.0
20260510000014 47 130 1.0 7.0 0.00 0.00 0.00 61 1013.6
20260509234513 47 165 0.0 5.0 0.00 0.00 0.00 63 1013.3
20260509233010 47 155 0.0 5.0 0.00 0.00 0.00 62 1012.8
20260509231506 49 145 1.0 6.0 0.00 0.00 0.00 58 1012.5
20260509230005 51 124 2.0 7.0 0.00 0.00 0.00 53 1012.1
20260509224502 52 165 2.0 6.0 0.00 0.00 0.00 49 1011.7
20260509223101 53 85 1.0 6.0 0.00 0.00 0.00 44 1011.2
20260509221559 52 117 2.0 5.0 0.00 0.00 0.00 43 1011.2
20260509220057 54 110 1.0 5.0 0.00 0.00 0.00 40 1010.8
20260509214557 55 58 0.0 5.0 0.00 0.00 0.00 36 1010.5